Latest Weather Observations for Dunalley

IDT60801

Issued at 2:31 pm EST Saturday 18 April 2015 (issued every 30 minutes, with the page automatically refreshed every 10 minutes)

About weather observations | Map of weather stations | Latest weather observations for TAS | Other Formats
Station Details ID: 094254 Name: DUNALLEY (STROUD POINT) Lat: -42.90 Lon: 147.79 Height: 12.43 m
Data from the previous 72 hours. | See also: Recent months at Dunalley
Date/Time
EST
Temp
°C
App
Temp
°C
Dew
Point
Rel
Hum
%
Delta-T
°C
Wind Press
QNH
hPa
Press
MSL
hPa
Rain
since 9 am
mm
Dir
 
Spd
km/h
Gust
km/h
Spd
kts
Gust
kts
18/02:30pm 19.3 13.7 8.6 50 5.6 W 28 35 15 19 1001.4 1001.4 0.0
18/02:00pm 19.7 14.0 6.8 43 6.5 W 26 37 14 20 1001.6 1001.6 0.0
18/01:30pm 20.0 13.6 5.3 38 7.2 WNW 28 41 15 22 1001.3 1001.3 0.0
18/01:00pm 20.5 13.9 4.1 34 7.9 WNW 28 41 15 22 1001.8 1001.8 0.0
18/12:30pm 21.2 16.1 3.9 32 8.3 WNW 20 30 11 16 1002.2 1002.2 0.0
18/12:00pm 20.7 17.2 5.5 37 7.6 NW 13 22 7 12 1002.7 1002.7 0.0
18/11:30am 19.9 14.6 4.8 37 7.4 WNW 22 37 12 20 1003.3 1003.3 0.0
18/11:00am 18.9 13.4 5.7 42 6.5 NW 24 39 13 21 1004.0 1004.0 0.0
18/10:30am 18.3 14.5 5.8 44 6.1 NW 15 37 8 20 1004.6 1004.6 0.0
18/10:00am 17.4 12.6 5.7 46 5.7 WNW 20 37 11 20 1005.0 1005.0 0.0
18/09:43am 16.8 10.4 5.1 46 5.6 WNW 28 48 15 26 1005.1 1005.1 0.0
18/09:30am 16.9 11.8 5.8 48 5.4 NW 22 41 12 22 1005.5 1005.5 0.0
18/09:00am 16.0 10.0 5.3 49 5.1 NW 26 43 14 23 1005.8 1005.8 0.0
18/08:30am 15.6 10.7 5.2 50 4.9 NW 20 30 11 16 1006.3 1006.3 0.0
18/08:00am 13.8 11.1 5.7 58 3.8 NNW 9 19 5 10 1006.6 1006.6 0.0
18/07:30am 13.0 11.7 5.9 62 3.3 NNW 2 4 1 2 1006.3 1006.3 0.0
18/07:00am 13.0 12.2 6.6 65 3.1 CALM 0 0 0 0 1006.0 1006.0 0.0
18/06:30am 12.4 11.3 6.9 69 2.6 NNW 2 4 1 2 1005.7 1005.7 0.0
18/06:00am 13.1 10.3 6.9 66 3.0 NNW 11 15 6 8 1005.7 1005.7 0.0
18/05:30am 13.1 9.9 6.7 65 3.1 N 13 15 7 8 1005.6 1005.6 0.0
18/05:00am 12.9 10.8 6.7 66 3.0 N 7 13 4 7 1005.9 1005.9 0.0
18/04:30am 13.5 11.7 7.1 65 3.1 N 6 9 3 5 1006.1 1006.1 0.0
18/04:00am 13.9 11.2 7.2 64 3.3 N 11 19 6 10 1006.0 1006.0 0.0
18/03:30am 13.9 10.4 7.2 64 3.3 N 15 24 8 13 1006.2 1006.2 0.0
18/03:00am 13.8 11.5 7.3 65 3.2 N 9 13 5 7 1006.5 1006.5 0.0
18/02:30am 14.1 11.4 7.2 63 3.4 N 11 19 6 10 1007.3 1007.3 0.0
18/02:00am 14.4 10.4 6.7 60 3.7 NNW 17 22 9 12 1007.8 1007.8 0.0
18/01:30am 14.1 11.4 7.2 63 3.4 N 11 17 6 9 1008.4 1008.4 0.0
18/01:00am 13.6 11.4 7.8 68 2.9 NNE 9 15 5 8 1009.3 1009.3 0.0
18/12:30am 13.6 12.0 7.8 68 2.9 NNE 6 11 3 6 1009.7 1009.7 0.0
18/12:00am 12.9 11.8 8.6 75 2.1 NNE 4 7 2 4 1010.2 1010.2 0.0
 
Date/Time
EST
Temp
°C
App
Temp
°C
Dew
Point
Rel
Hum
%
Delta-T
°C
Wind Press
QNH
hPa
Press
MSL
hPa
Rain
since 9 am
mm
Dir
 
Spd
km/h
Gust
km/h
Spd
kts
Gust
kts
17/11:30pm 13.3 9.9 9.2 76 2.1 NNE 17 22 9 12 1010.5 1010.5 0.0
17/11:00pm 12.9 11.4 8.4 74 2.2 N 6 11 3 6 1011.0 1011.0 0.0
17/10:30pm 12.9 11.2 8.2 73 2.3 N 7 11 4 6 1011.6 1011.6 0.0
17/10:00pm 13.1 10.6 8.2 72 2.4 N 11 15 6 8 1012.2 1012.2 0.0
17/09:30pm 13.5 11.0 8.4 71 2.5 N 11 17 6 9 1012.4 1012.4 0.0
17/09:00pm 13.4 10.3 8.7 73 2.4 N 15 19 8 10 1012.4 1012.4 0.0
17/08:30pm 13.4 11.7 8.3 71 2.5 N 7 13 4 7 1012.7 1012.7 0.0
17/08:00pm 14.2 12.6 8.2 67 3.0 NNW 6 13 3 7 1012.6 1012.6 0.0
17/07:30pm 14.1 11.6 8.1 67 3.0 N 11 13 6 7 1012.7 1012.7 0.0
17/07:00pm 14.7 11.8 8.0 64 3.3 NNW 13 15 7 8 1012.7 1012.7 0.0
17/06:30pm 15.4 12.1 7.9 61 3.8 NNW 15 19 8 10 1013.0 1013.0 0.0
17/06:00pm 15.7 13.1 7.7 59 4.0 N 11 15 6 8 1012.6 1012.6 0.0
17/05:30pm 16.5 14.3 8.0 57 4.3 N 9 11 5 6 1012.8 1012.8 0.0
17/05:00pm 17.0 15.2 7.9 55 4.6 N 7 11 4 6 1012.6 1012.6 0.0
17/04:30pm 18.2 16.6 7.9 51 5.3 N 6 9 3 5 1013.0 1013.0 0.0
17/04:00pm 19.5 17.2 7.6 46 6.1 N 9 13 5 7 1013.3 1013.3 0.0
17/03:30pm 19.0 17.9 8.4 50 5.5 N 4 6 2 3 1013.7 1013.7 0.0
17/03:00pm 18.1 16.7 8.7 54 4.9 N 6 11 3 6 1014.1 1014.1 0.0
17/02:30pm 18.9 17.3 8.8 52 5.3 N 7 9 4 5 1014.4 1014.4 0.0
17/02:00pm 20.1 17.5 7.8 45 6.3 N 11 22 6 12 1014.5 1014.5 0.0
17/01:30pm 19.3 15.8 8.9 51 5.4 ENE 17 20 9 11 1015.0 1015.0 0.0
17/01:00pm 18.6 16.2 9.9 57 4.6 NE 13 20 7 11 1015.7 1015.7 0.0
17/12:30pm 18.3 14.4 8.8 54 4.9 ENE 19 26 10 14 1016.3 1016.3 0.0
17/12:00pm 18.8 15.9 6.6 45 6.1 NW 11 17 6 9 1017.3 1017.3 0.0
17/11:30am 18.6 15.6 6.1 44 6.2 NW 11 19 6 10 1017.9 1017.9 0.0
17/11:00am 17.8 14.1 6.3 47 5.7 NW 15 28 8 15 1018.3 1018.3 0.0
17/10:30am 17.3 13.2 6.2 48 5.4 WNW 17 28 9 15 1018.8 1018.8 0.0
17/10:00am 16.9 14.2 7.5 54 4.7 NW 11 17 6 9 1019.1 1019.1 0.0
17/09:30am 16.2 13.8 6.9 54 4.6 WNW 9 19 5 10 1019.4 1019.4 0.0
17/09:00am 15.0 11.8 6.8 58 4.0 W 13 20 7 11 1019.9 1019.9 0.0
17/08:30am 14.5 12.2 7.5 63 3.5 W 9 15 5 8 1020.2 1020.2 0.0
17/08:00am 13.7 11.8 7.7 67 2.9 W 7 11 4 6 1020.4 1020.4 0.0
17/07:30am 12.3 9.7 7.8 74 2.2 W 11 17 6 9 1020.3 1020.3 0.0
17/07:00am 10.1 8.4 7.5 84 1.2 W 6 7 3 4 1020.1 1020.1 0.0
17/06:30am 9.9 7.9 7.3 84 1.2 W 7 9 4 5 1020.1 1020.1 0.0
17/06:00am 9.7 8.1 8.0 89 0.8 W 6 9 3 5 1019.8 1019.8 0.0
17/05:30am 9.9 7.7 6.3 78 1.7 W 7 13 4 7 1019.8 1019.8 0.0
17/05:00am 10.6 9.6 7.5 81 1.5 W 2 6 1 3 1019.7 1019.7 0.0
17/04:30am 10.6 8.7 6.6 76 1.9 W 6 6 3 3 1019.5 1019.5 0.0
17/04:00am 12.2 10.4 7.9 75 2.1 W 7 9 4 5 1019.3 1019.3 0.0
17/03:30am 12.2 9.9 7.3 72 2.4 W 9 15 5 8 1019.5 1019.5 0.0
17/03:00am 12.4 9.5 6.7 68 2.7 W 11 15 6 8 1019.2 1019.2 0.0
17/02:30am 13.2 9.7 7.0 66 3.0 WNW 15 22 8 12 1019.3 1019.3 0.0
17/02:00am 13.6 9.3 6.9 64 3.2 WNW 19 28 10 15 1019.6 1019.6 0.0
17/01:30am 13.3 9.7 6.6 64 3.2 NNW 15 20 8 11 1019.6 1019.6 0.0
17/01:00am 13.5 10.2 6.6 63 3.3 NNW 13 22 7 12 1019.9 1019.9 0.0
17/12:30am 13.7 10.1 6.6 62 3.4 NNW 15 20 8 11 1019.9 1019.9 0.0
17/12:00am 13.3 10.0 6.6 64 3.2 NW 13 24 7 13 1019.9 1019.9 0.0
 
Date/Time
EST
Temp
°C
App
Temp
°C
Dew
Point
Rel
Hum
%
Delta-T
°C
Wind Press
QNH
hPa
Press
MSL
hPa
Rain
since 9 am
mm
Dir
 
Spd
km/h
Gust
km/h
Spd
kts
Gust
kts
16/11:30pm 13.2 9.2 6.5 64 3.2 WNW 17 22 9 12 1019.9 1019.9 0.0
16/11:00pm 13.4 9.4 6.5 63 3.3 NW 17 22 9 12 1020.2 1020.2 0.0
16/10:30pm 13.7 9.2 6.8 63 3.3 NW 20 35 11 19 1020.3 1020.3 0.0
16/10:00pm 13.5 8.9 6.6 63 3.3 NW 20 33 11 18 1020.5 1020.5 0.0
16/09:30pm 14.1 9.4 6.2 59 3.8 NW 20 32 11 17 1020.4 1020.4 0.0
16/09:00pm 14.0 10.2 5.9 58 3.8 NNW 15 24 8 13 1020.2 1020.2 0.0
16/08:30pm 14.0 10.2 5.9 58 3.8 NW 15 22 8 12 1020.3 1020.3 0.0
16/08:00pm 14.2 10.4 5.8 57 4.0 NW 15 24 8 13 1020.4 1020.4 0.0
16/07:30pm 14.3 10.5 5.7 56 4.1 NW 15 28 8 15 1019.8 1019.8 0.0
16/07:00pm 13.9 9.6 5.3 56 4.0 NNW 17 26 9 14 1019.7 1019.7 0.0
16/06:30pm 14.0 10.5 5.4 56 4.0 NNW 13 19 7 10 1019.9 1019.9 0.0
16/06:00pm 14.2 10.4 5.6 56 4.1 NW 15 22 8 12 1019.6 1019.6 0.0
16/05:30pm 14.4 10.6 5.7 56 4.1 NW 15 22 8 12 1019.5 1019.5 0.0
16/05:00pm 14.6 9.3 5.1 53 4.4 WNW 22 33 12 18 1019.2 1019.2 0.0
16/04:30pm 14.9 8.5 5.1 52 4.6 WNW 28 41 15 22 1019.1 1019.1 0.0
16/04:00pm 15.7 9.6 5.0 49 5.0 WNW 26 43 14 23 1019.0 1019.0 0.0
16/03:30pm 15.8 8.4 5.1 49 5.1 W 33 46 18 25 1019.0 1019.0 0.0
16/03:00pm 16.0 9.8 7.7 58 4.1 WSW 30 39 16 21 1018.6 1018.6 0.0
16/02:30pm 15.4 8.6 7.7 60 3.8 WSW 33 39 18 21 1018.8 1018.8 0.0
16/02:00pm 15.3 8.6 7.3 59 3.9 WSW 32 37 17 20 1018.8 1018.8 0.0
16/01:30pm 16.4 11.9 6.8 53 4.7 WSW 20 28 11 15 1018.6 1018.6 0.0
16/01:00pm 16.3 12.3 6.7 53 4.7 WSW 17 19 9 10 1018.5 1018.5 0.0
16/12:30pm 16.2 11.9 6.9 54 4.6 WSW 19 22 10 12 1018.7 1018.7 0.0
16/12:00pm 15.5 9.1 6.8 56 4.2 WSW 30 35 16 19 1018.8 1018.8 0.0
16/11:30am 15.3 9.3 7.1 58 4.0 SW 28 35 15 19 1019.1 1019.1 0.0
16/11:00am 14.8 7.7 6.4 57 4.0 SW 33 39 18 21 1019.0 1019.0 0.0
16/10:30am 14.7 8.0 7.3 61 3.6 SW 32 37 17 20 1018.9 1018.9 0.0
16/10:00am 14.9 8.3 7.7 62 3.6 WSW 32 35 17 19 1018.7 1018.7 0.0
16/09:30am 14.5 7.3 7.5 63 3.5 SW 35 43 19 23 1018.7 1018.7 0.0
16/09:00am 14.4 6.7 8.6 68 2.9 WSW 39 48 21 26 1018.2 1018.2 0.0
16/08:30am 14.2 7.0 9.0 71 2.6 SW 37 44 20 24 1018.1 1018.1 0.0
16/08:11am 13.7 11.5 10.9 83 1.5 SW 13 32 7 17 1018.1 1018.1 0.0
16/08:00am 13.6 13.0 12.2 91 0.8 SW 7 9 4 5 1018.1 1018.1 0.0
16/07:30am 13.5 12.5 12.4 93 0.6 SW 9 11 5 6 1017.5 1017.5 0.0
16/07:00am 12.9 12.1 11.8 93 0.6 SSW 7 9 4 5 1016.8 1016.8 0.0
16/06:30am 13.6 10.8 12.7 94 0.5 SW 19 24 10 13 1016.3 1016.3 0.0
16/06:00am 13.8 12.2 12.9 94 0.5 WSW 13 15 7 8 1015.8 1015.8 0.0
16/05:30am 13.9 11.2 12.8 93 0.6 SW 19 22 10 12 1015.2 1015.2 0.0
16/05:00am 14.5 11.7 12.5 88 1.1 W 19 24 10 13 1014.6 1014.6 0.0
16/04:30am 14.2 13.2 12.4 89 1.0 W 9 13 5 7 1014.1 1014.1 0.0
16/04:00am 13.9 13.7 11.8 87 1.1 W 4 7 2 4 1013.7 1013.7 0.0
16/03:30am 14.7 14.0 12.0 84 1.5 W 7 13 4 7 1013.4 1013.4 0.0
16/03:00am 15.0 13.3 12.5 85 1.4 WSW 13 20 7 11 1013.4 1013.4 0.0
16/02:30am 14.0 13.1 12.6 91 0.8 WSW 9 13 5 7 1013.7 1013.7 0.0
16/02:00am 14.8 14.1 13.3 91 0.8 WSW 9 13 5 7 1014.0 1014.0 0.0
16/01:30am 15.5 14.1 13.5 88 1.1 WSW 13 17 7 9 1014.2 1014.2 0.0
16/01:00am 15.2 14.9 13.4 89 1.0 SW 7 17 4 9 1014.3 1014.3 0.0
16/12:30am 14.7 15.3 13.2 91 0.8 SW 2 4 1 2 1013.9 1013.9 0.0
16/12:00am 14.7 14.9 13.1 90 0.9 SW 4 6 2 3 1013.9 1013.9 0.0
 
Date/Time
EST
Temp
°C
App
Temp
°C
Dew
Point
Rel
Hum
%
Delta-T
°C
Wind Press
QNH
hPa
Press
MSL
hPa
Rain
since 9 am
mm
Dir
 
Spd
km/h
Gust
km/h
Spd
kts
Gust
kts
15/11:30pm 15.0 15.3 13.5 91 0.8 SW 4 6 2 3 1013.8 1013.8 0.0
15/11:00pm 14.8 14.7 13.3 91 0.8 SW 6 7 3 4 1013.9 1013.9 0.0
15/10:30pm 15.4 15.8 13.6 89 1.0 SW 4 6 2 3 1014.3 1014.3 0.0
15/10:00pm 15.9 17.1 13.7 87 1.2 CALM 0 2 0 1 1014.5 1014.5 0.0
15/09:30pm 16.4 16.4 13.5 83 1.6 SW 6 7 3 4 1014.6 1014.6 0.0
15/09:00pm 17.9 15.5 12.8 72 2.8 WNW 17 28 9 15 1014.8 1014.8 0.0
15/08:30pm 18.5 16.8 12.3 67 3.4 N 13 19 7 10 1014.1 1014.1 0.0
15/08:00pm 19.0 16.5 12.3 65 3.7 N 17 22 9 12 1014.0 1014.0 0.0
15/07:30pm 18.7 17.0 12.5 67 3.5 N 13 17 7 9 1014.0 1014.0 0.0
15/07:00pm 19.8 18.2 12.8 64 3.9 N 13 17 7 9 1013.8 1013.8 0.0
15/06:30pm 19.8 19.0 13.0 65 3.9 N 9 15 5 8 1013.7 1013.7 0.0
15/06:00pm 19.5 18.5 12.3 63 4.0 N 9 11 5 6 1013.6 1013.6 0.0
15/05:30pm 20.8 19.1 12.5 59 4.7 NNW 13 20 7 11 1013.4 1013.4 0.0
15/05:00pm 21.2 20.3 12.6 58 4.9 N 9 13 5 7 1013.3 1013.3 0.0
15/04:30pm 21.3 20.2 13.0 59 4.7 N 11 19 6 10 1013.3 1013.3 0.0
15/04:00pm 23.0 21.4 12.9 53 5.8 N 13 19 7 10 1013.3 1013.3 0.0
15/03:30pm 22.8 20.8 12.7 53 5.8 N 15 24 8 13 1013.5 1013.5 0.0
15/03:00pm 22.9 19.0 12.2 51 6.1 N 24 33 13 18 1013.5 1013.5 0.0

Other Formats:

Comma delimited format used in spreadsheet applications
http://www.bom.gov.au/fwo/IDT60801/IDT60801.94951.axf

JavaScript Object Notation format (JSON) in row-major order
http://www.bom.gov.au/fwo/IDT60801/IDT60801.94951.json